Flight Track Log - Related Links

Times and Time Zones

All times are in EDT time to prevent confusion due to time zone crossing. See the QXE2594 flight status page for this flight to view local times or setup timezone preferences in your user account.


Time Position Orientation Groundspeed Altitude Reporting Facility
EDT Latitude Longitude Course Direction KTS MPH feet Rate Location/Type
Mon 05:03:00 PM 47.5500 -121.4798 90° East  Level FlightAware Approximate
Mon 05:04:00 PM 47.5501 -121.3580 90° East  Level FlightAware Approximate
Mon 05:05:00 PM 47.5500 -121.2363 90° East  Level FlightAware Approximate
Mon 05:06:00 PM 47.5500 -121.1145 90° East  Level FlightAware Approximate
Mon 05:07:00 PM 47.5500 -120.9928 90° East  Level FlightAware Approximate
Mon 05:08:00 PM 47.5469 -120.8711 92° East  Level FlightAware Approximate
Mon 05:09:00 PM 47.5435 -120.7494 92° East  Level FlightAware Approximate
Mon 05:10:00 PM 47.5399 -120.6278 92° East  Level FlightAware Approximate
Mon 05:11:00 PM 47.5362 -120.5062 93° East  Level FlightAware Approximate
Mon 05:12:00 PM 47.5317 -120.3847 94° East  Level FlightAware Approximate
Mon 05:13:00 PM 47.5254 -120.2633 94° East  Level FlightAware Approximate
Mon 05:14:00 PM 47.5189 -120.1420 94° East  Level FlightAware Approximate
Mon 05:15:00 PM 47.5127 -120.0207 94° East  Level FlightAware Approximate
Mon 05:16:00 PM 47.5066 -119.8993 94° East  Level FlightAware Approximate
Mon 05:17:00 PM 47.5003 -119.7780 94° East  Level FlightAware Approximate
Mon 05:18:00 PM 47.4939 -119.6568 94° East  Level FlightAware Approximate
Mon 05:19:00 PM 47.4873 -119.5355 95° East  Level FlightAware Approximate
Mon 05:20:00 PM 47.4807 -119.4143 95° East  Level FlightAware Approximate
Mon 05:21:00 PM 47.4739 -119.2931 95° East  Level FlightAware Approximate
Mon 05:22:00 PM 47.4670 -119.1720 95° East  Level FlightAware Approximate
Mon 05:23:00 PM 47.4578 -119.0512 96° East  Level FlightAware Approximate
Mon 05:24:00 PM 47.4489 -118.9304 95° East  Level FlightAware Approximate
Mon 05:25:00 PM 47.4418 -118.8093 95° East  Level FlightAware Approximate
Mon 05:26:00 PM 47.4346 -118.6882 95° East  Level FlightAware Approximate
Mon 05:27:00 PM 47.4333 -118.5668 90° East  Level FlightAware Approximate
Mon 05:28:00 PM 47.4279 -118.4458 96° East  Level FlightAware Approximate
Mon 05:29:00 PM 47.4186 -118.3251 96° East  Level FlightAware Approximate
Mon 05:30:00 PM 47.4300 -118.2070 72° East  Level FlightAware Approximate
Mon 05:31:00 PM 47.4557 -118.0916 72° East  Level FlightAware Approximate
Mon 05:32:00 PM 47.4813 -117.9760 72° East  Level FlightAware Approximate
Mon 05:33:00 PM 47.5132 -117.8641 70° East  Level FlightAware Approximate
Mon 05:34:00 PM 47.5440 -117.7514 64° Northeast  Level FlightAware Approximate
Mon 05:35:00 PM 47.5768 -117.6398 67° East  Level FlightAware Approximate
Mon 05:36:00 PM 47.6166 -117.5334 59° Northeast  Level FlightAware Approximate
Mon 05:37:00 PM 47.6190 -117.5352 59° Northeast  Level Estimated
Mon 05:38:00 PM 47.6167 -117.5333 59° Northeast  Level FlightAware Approximate
Mon 05:39:00 PM 47.6190 -117.5352 59° Northeast  Level Estimated
Mon 05:40:00 PM 47.6167 -117.5333 59° Northeast  Level FlightAware Approximate
Mon 05:41:00 PM 47.6190 -117.5352 59° Northeast  Level Estimated
Mon 05:42:00 PM 47.6167 -117.5333 59° Northeast  Level FlightAware Approximate
Mon 05:43:00 PM 47.6190 -117.5352 59° Northeast  Level Estimated
Mon 05:44:00 PM 47.6167 -117.5333 59° Northeast  Level FlightAware Approximate
Mon 05:45:00 PM 47.6190 -117.5352 59° Northeast  Level Estimated
Mon 05:46:00 PM 47.6167 -117.5333 59° Northeast  Level FlightAware Approximate
Mon 05:47:00 PM 47.6190 -117.5352 59° Northeast  Level Estimated
Mon 05:48:00 PM 47.6167 -117.5333 59° Northeast  Level FlightAware Approximate
Mon 05:49:00 PM 47.6190 -117.5352 59° Northeast  Level Estimated
Mon 05:50:00 PM 47.6167 -117.5333 59° Northeast  Level FlightAware Approximate
Mon 05:51:00 PM 47.6190 -117.5352 59° Northeast  Level Estimated

Login

Don't have an account? Register now (free) for customized features, flight alerts, and more!